EGHE/ISC METAR and TAF weather

Enter ICAO airport designator
Station Type Date Time Source
EGHE METAR 2022/06/30 16:20 UTC NOAA

EGHE 301620Z 29011KT 9999 SCT021 17/10 Q1014


Station Type Date Time Source
EGHE Decoded METAR 2022/06/30 16:20 UTC NOAA

Scilly, Saint Mary'S, United Kingdom (EGHE) 49-55N 006-18W 0M
Jun 30, 2022 - 12:20 PM EDT / 2022.06.30 1620 UTC
Wind: from the WNW (290 degrees) at 13 MPH (11 KT):0
Visibility: greater than 7 mile(s):0
Sky conditions: partly cloudy
Temperature: 62 F (17 C)
Dew Point: 50 F (10 C)
Relative Humidity: 63%
Pressure (altimeter): 29.94 in. Hg (1014 hPa)
ob: EGHE 301620Z 29011KT 9999 SCT021 17/10 Q1014
cycle: 16

Station Type Date Time Source
EGHE TAF UTC NOAA

Error!

Example: see airport list